Latest Weather Observations for St Helens

IDT60801

Issued at 8:35 pm EDT Sunday 23 November 2014 (issued every 30 minutes, with the page automatically refreshed every 10 minutes)

About weather observations | Map of weather stations | Latest weather observations for TAS | Other Formats
Station Details ID: 092120 Name: ST HELENS AERODROME Lat: -41.34 Lon: 148.28 Height: 48.0 m
Data from the previous 72 hours. | See also: Recent months at St Helens
Date/Time
EDT
Temp
°C
App
Temp
°C
Dew
Point
Rel
Hum
%
Delta-T
°C
Wind Press
QNH
hPa
Press
MSL
hPa
Rain
since 9 am
mm
Dir
 
Spd
km/h
Gust
km/h
Spd
kts
Gust
kts
23/08:30pm 17.9 15.9 8.7 55 4.8 WSW 9 19 5 10 1010.6 - 0.0
23/08:00pm 17.9 16.4 9.3 57 4.5 WSW 7 19 4 10 1010.3 - 0.0
23/07:30pm 17.5 15.6 10.6 64 3.7 S 11 19 6 10 1010.0 - 0.0
23/07:00pm 18.0 16.4 11.6 66 3.5 S 11 20 6 11 1009.6 - 0.0
23/06:30pm 18.4 16.0 11.5 64 3.8 S 15 22 8 12 1009.3 - 0.0
23/06:00pm 20.8 18.9 11.7 56 5.1 S 13 20 7 11 1008.9 1008.8 0.0
23/05:30pm 20.2 18.3 11.7 58 4.7 S 13 22 7 12 1008.9 - 0.0
23/05:00pm 19.5 17.1 11.3 59 4.5 SE 15 24 8 13 1008.9 - 0.0
23/04:30pm 20.1 17.5 12.1 60 4.5 ESE 17 28 9 15 1008.7 - 0.0
23/04:00pm 20.0 17.9 11.0 56 4.9 ESE 13 28 7 15 1008.5 - 0.0
23/03:30pm 20.8 18.6 12.0 57 4.9 E 15 26 8 14 1008.9 - 0.0
23/03:00pm 21.0 18.2 12.7 59 4.7 E 19 32 10 17 1009.0 1008.9 0.0
23/02:30pm 20.8 18.5 14.0 65 3.9 ESE 19 32 10 17 1009.1 - 0.0
23/02:00pm 21.0 19.1 14.2 65 4.0 ESE 17 30 9 16 1009.2 - 0.0
23/01:30pm 20.3 17.9 12.8 62 4.3 ESE 17 32 9 17 1009.3 - 0.0
23/01:00pm 20.7 18.7 12.7 60 4.5 ESE 15 28 8 15 1009.5 - 0.0
23/12:30pm 19.9 16.9 11.9 60 4.5 E 19 30 10 16 1009.6 - 0.0
23/12:00pm 20.8 17.4 10.6 52 5.6 ESE 19 26 10 14 1009.2 1009.1 0.0
23/11:30am 21.0 17.6 9.3 47 6.2 E 17 33 9 18 1009.2 - 0.0
23/11:00am 21.7 17.5 9.9 47 6.4 ENE 22 28 12 15 1009.2 - 0.0
23/10:30am 20.7 16.6 10.2 51 5.7 ENE 22 30 12 16 1008.9 - 0.0
23/10:00am 20.4 16.9 10.2 52 5.5 ENE 19 26 10 14 1008.6 - 0.0
23/09:30am 20.7 17.5 11.1 54 5.3 ENE 19 26 10 14 1008.5 - 0.0
23/09:00am 20.9 19.0 10.4 51 5.7 E 11 19 6 10 1008.1 1008.1 0.0
23/08:30am 19.9 18.7 10.3 54 5.2 ENE 7 15 4 8 1007.5 - 0.0
23/08:00am 18.9 18.0 10.7 59 4.4 NNE 6 9 3 5 1007.0 - 0.0
23/07:30am 16.9 16.2 11.4 70 3.0 N 6 7 3 4 1006.4 - 0.0
23/07:00am 15.2 14.9 11.6 79 1.9 N 4 7 2 4 1005.7 - 0.0
23/06:30am 15.5 15.9 11.1 75 2.4 CALM 0 0 0 0 1005.3 - 0.0
23/06:00am 14.4 14.2 10.6 78 2.0 WNW 2 7 1 4 1004.8 1004.8 0.0
23/05:30am 14.9 14.1 10.9 77 2.1 WNW 6 9 3 5 1004.3 - 0.0
23/05:00am 14.6 13.2 10.8 78 2.0 NW 9 13 5 7 1004.0 - 0.0
23/04:30am 14.1 12.5 11.4 84 1.4 NW 11 17 6 9 1003.7 - 0.0
23/04:00am 13.6 12.3 11.1 85 1.3 NNW 9 17 5 9 1003.5 - 0.0
23/03:30am 15.8 14.6 11.6 76 2.3 WNW 9 15 5 8 1003.5 - 0.0
23/03:00am 13.8 12.9 11.3 85 1.3 NNW 7 9 4 5 1003.4 1003.4 0.0
23/02:30am 15.0 14.2 11.6 80 1.8 NNE 7 9 4 5 1003.5 - 0.0
23/02:00am 14.3 13.7 11.6 84 1.4 SSW 6 7 3 4 1004.1 - 0.0
23/01:30am 15.6 14.6 11.0 74 2.5 N 7 11 4 6 1004.4 - 0.0
23/01:00am 15.3 14.8 10.7 74 2.4 WNW 4 6 2 3 1004.4 - 0.0
23/12:30am 15.6 14.7 11.2 75 2.4 NW 7 13 4 7 1005.0 - 0.0
23/12:00am 15.2 15.1 12.1 82 1.7 NNW 4 9 2 5 1005.6 1005.6 0.0
 
Date/Time
EDT
Temp
°C
App
Temp
°C
Dew
Point
Rel
Hum
%
Delta-T
°C
Wind Press
QNH
hPa
Press
MSL
hPa
Rain
since 9 am
mm
Dir
 
Spd
km/h
Gust
km/h
Spd
kts
Gust
kts
22/11:30pm 15.5 14.8 12.1 80 1.9 NNW 7 13 4 7 1005.4 - 0.0
22/11:00pm 14.9 15.5 12.0 83 1.6 CALM 0 0 0 0 1006.1 - 0.0
22/10:30pm 15.7 14.9 12.8 83 1.6 NW 9 11 5 6 1006.2 - 0.0
22/10:00pm 15.9 14.8 13.0 83 1.6 NNW 11 17 6 9 1006.2 - 0.0
22/09:30pm 16.0 14.3 13.5 85 1.4 N 15 20 8 11 1006.2 - 0.0
22/09:00pm 15.8 14.9 13.6 87 1.2 NNE 11 17 6 9 1006.3 1006.3 0.0
22/08:30pm 15.8 13.7 13.6 87 1.2 NNE 17 26 9 14 1006.2 - 0.0
22/08:00pm 16.2 13.8 13.9 86 1.3 N 19 28 10 15 1006.1 - 0.0
22/07:30pm 16.3 13.8 14.0 86 1.3 N 20 30 11 16 1006.3 - 0.0
22/07:00pm 16.7 14.0 13.6 82 1.8 N 20 33 11 18 1006.1 - 0.0
22/06:30pm 17.1 14.1 13.6 80 2.0 N 22 30 12 16 1006.2 - 0.0
22/06:00pm 18.2 15.3 12.9 71 3.0 N 20 32 11 17 1006.0 1006.0 0.0
22/05:30pm 19.3 16.4 13.0 67 3.6 N 20 32 11 17 1006.3 - 0.0
22/05:00pm 19.6 16.1 12.1 62 4.2 N 22 33 12 18 1006.7 - 0.0
22/04:30pm 19.8 15.9 12.1 61 4.3 N 24 35 13 19 1006.9 - 0.0
22/04:00pm 19.5 15.6 10.8 57 4.7 N 22 37 12 20 1007.1 - 0.0
22/03:30pm 19.9 16.1 9.8 52 5.4 N 20 32 11 17 1007.3 - 0.0
22/03:00pm 23.2 18.6 6.5 34 8.6 WNW 20 37 11 20 1007.7 1007.7 0.0
22/02:30pm 20.4 16.1 10.8 54 5.2 N 24 41 13 22 1008.2 - 0.0
22/02:00pm 21.9 16.0 7.3 39 7.5 N 28 39 15 21 1007.9 - 0.0
22/01:30pm 22.6 17.5 7.6 38 7.8 NNW 24 41 13 22 1008.0 - 0.0
22/01:00pm 22.4 18.4 8.1 40 7.5 NW 19 32 10 17 1008.8 - 0.0
22/12:30pm 21.6 17.6 8.1 42 7.1 NNW 19 33 10 18 1009.2 - 0.0
22/12:00pm 20.1 16.8 9.4 50 5.7 NW 17 30 9 16 1009.5 1009.4 0.0
22/11:30am 18.1 14.7 9.2 56 4.7 NW 17 30 9 16 1010.1 - 0.0
22/11:00am 17.2 14.6 9.4 60 4.1 NW 13 22 7 12 1009.8 - 0.0
22/10:30am 16.0 14.4 10.1 68 3.1 NNW 9 15 5 8 1010.2 - 0.0
22/10:00am 14.4 11.3 9.0 70 2.8 WNW 15 24 8 13 1010.6 - 0.0
22/09:30am 13.5 10.8 9.0 74 2.3 NNW 13 20 7 11 1010.9 - 0.0
22/09:00am 12.8 9.8 7.5 70 2.6 N 13 20 7 11 1011.1 1011.0 2.2
22/08:30am 12.8 10.0 7.0 68 2.8 NNW 11 17 6 9 1011.2 - 2.2
22/08:00am 12.2 9.7 6.5 68 2.7 NNW 9 13 5 7 1011.2 - 2.2
22/07:30am 11.2 8.8 7.1 76 2.0 NNW 9 15 5 8 1010.7 - 2.2
22/07:00am 10.2 7.8 8.8 91 0.7 WNW 11 20 6 11 1010.9 - 2.2
22/06:30am 8.6 6.8 7.8 95 0.4 NW 7 15 4 8 1010.7 - 2.2
22/06:00am 8.0 6.0 7.2 95 0.4 NNW 7 13 4 7 1010.3 1010.2 2.2
22/05:30am 9.0 7.3 8.2 95 0.4 NW 7 13 4 7 1010.0 - 2.2
22/05:00am 8.7 7.1 7.9 95 0.4 W 6 9 3 5 1009.7 - 2.2
22/04:30am 8.6 7.7 7.8 95 0.4 W 2 6 1 3 1009.7 - 2.2
22/04:00am 8.6 5.6 7.8 95 0.4 N 13 17 7 9 1009.6 - 2.2
22/03:30am 9.4 7.7 8.5 94 0.4 NNW 7 11 4 6 1009.8 - 2.2
22/03:00am 9.8 8.4 9.0 95 0.4 WNW 6 11 3 6 1010.4 1010.3 2.2
22/02:30am 10.0 9.1 9.2 95 0.4 NNW 4 13 2 7 1010.8 - 2.2
22/02:00am 9.8 9.2 8.9 94 0.4 SW 2 7 1 4 1011.0 - 2.2
22/01:30am 9.8 7.4 8.7 93 0.5 NNW 11 13 6 7 1011.2 - 2.2
22/01:00am 10.3 8.4 8.9 91 0.7 NW 9 13 5 7 1011.5 - 2.2
22/12:30am 11.2 10.2 8.9 86 1.1 NW 4 7 2 4 1011.4 - 2.2
22/12:00am 12.0 10.8 9.6 85 1.2 NNW 6 7 3 4 1011.8 1011.7 2.2
 
Date/Time
EDT
Temp
°C
App
Temp
°C
Dew
Point
Rel
Hum
%
Delta-T
°C
Wind Press
QNH
hPa
Press
MSL
hPa
Rain
since 9 am
mm
Dir
 
Spd
km/h
Gust
km/h
Spd
kts
Gust
kts
21/11:30pm 12.4 11.1 9.2 81 1.6 NNE 6 7 3 4 1012.0 - 2.2
21/11:00pm 12.6 12.4 9.2 80 1.7 CALM 0 0 0 0 1012.0 - 2.2
21/10:30pm 12.6 12.4 9.1 79 1.8 CALM 0 0 0 0 1012.2 - 2.2
21/10:00pm 12.8 12.7 9.3 79 1.8 CALM 0 0 0 0 1012.0 - 2.2
21/09:30pm 12.9 12.8 9.5 80 1.7 CALM 0 0 0 0 1011.9 - 2.2
21/09:00pm 13.0 11.8 9.6 80 1.7 E 6 9 3 5 1011.5 1011.4 2.2
21/08:30pm 12.9 12.6 8.8 76 2.1 CALM 0 7 0 4 1011.1 - 2.2
21/08:00pm 13.0 11.5 9.1 77 2.0 E 7 11 4 6 1010.4 - 2.2
21/07:30pm 13.1 11.7 9.0 76 2.1 E 6 11 3 6 1010.1 - 2.2
21/07:00pm 13.2 11.9 9.3 77 2.0 E 6 9 3 5 1009.6 - 2.2
21/06:30pm 13.2 11.9 9.3 77 2.0 ESE 6 11 3 6 1009.0 - 2.2
21/06:00pm 13.2 11.9 10.0 81 1.7 SE 7 13 4 7 1008.5 1008.4 2.2
21/05:30pm 13.1 11.5 10.1 82 1.6 SSE 9 17 5 9 1008.0 - 2.2
21/05:00pm 13.0 10.7 10.4 84 1.4 SE 13 20 7 11 1007.6 - 2.2
21/04:30pm 13.1 11.0 11.3 89 1.0 SSE 13 24 7 13 1007.1 - 2.2
21/04:00pm 12.9 11.2 11.3 90 0.8 SSE 11 24 6 13 1006.7 - 2.0
21/03:30pm 13.4 11.1 11.6 89 1.0 SSE 15 30 8 16 1006.3 - 1.2
21/03:00pm 13.2 10.6 11.9 92 0.7 S 17 32 9 17 1005.9 1005.9 1.2
21/02:30pm 13.4 10.8 12.0 91 0.8 SSE 17 35 9 19 1005.5 - 1.0
21/02:00pm 13.9 11.9 12.6 92 0.7 S 15 30 8 16 1005.1 - 0.8
21/01:30pm 15.8 12.9 12.4 80 1.9 S 19 33 10 18 1004.5 - 0.2
21/01:00pm 15.9 14.2 13.7 87 1.2 S 15 24 8 13 1004.3 - 0.2
21/12:30pm 14.4 12.0 12.8 90 0.9 S 17 28 9 15 1004.1 - 0.2
21/12:00pm 15.4 12.3 12.3 82 1.7 S 20 32 11 17 1004.1 1004.1 0.0
21/11:30am 19.1 17.1 10.1 56 4.8 W 11 20 6 11 1003.1 - 0.0
21/11:00am 20.2 18.0 10.9 55 5.1 W 13 26 7 14 1002.6 - 0.0
21/10:30am 20.6 18.8 11.0 54 5.3 W 11 19 6 10 1002.5 - 0.0
21/10:00am 20.3 18.8 11.8 58 4.7 W 11 20 6 11 1002.4 - 0.0
21/09:30am 19.2 17.6 11.5 61 4.2 WSW 11 19 6 10 1002.2 - 0.0
21/09:00am 18.2 16.0 10.8 62 4.0 W 13 28 7 15 1001.9 1001.9 0.0
21/08:30am 17.8 15.7 11.1 65 3.6 WSW 13 20 7 11 1001.6 - 0.0
21/08:00am 17.6 16.0 11.4 67 3.4 W 11 20 6 11 1001.6 - 0.0
21/07:30am 16.2 14.0 10.7 70 2.9 W 13 22 7 12 1001.3 - 0.0
21/07:00am 16.1 14.7 10.8 71 2.8 W 9 20 5 11 1001.2 - 0.0
21/06:30am 16.2 15.1 12.0 76 2.3 W 9 19 5 10 1000.6 - 0.0
21/06:00am 16.4 14.6 12.2 76 2.3 WNW 13 22 7 12 1000.7 1000.7 0.0
21/05:30am 16.3 15.0 12.5 78 2.1 WNW 11 19 6 10 1000.4 - 0.0
21/05:00am 16.4 14.9 13.1 81 1.8 NW 13 24 7 13 1000.2 - 0.0
21/04:30am 16.4 14.5 13.1 81 1.8 NNW 15 24 8 13 999.5 - 0.0
21/04:00am 16.3 15.4 13.6 84 1.5 N 11 15 6 8 999.9 - 0.0
21/03:30am 16.4 15.9 13.9 85 1.4 NNE 9 11 5 6 1000.1 - 0.0
21/03:00am 16.4 15.6 13.9 85 1.4 N 11 15 6 8 1000.4 1000.4 0.0
21/02:30am 16.5 14.9 13.8 84 1.5 N 15 20 8 11 1000.7 - 0.0
21/02:00am 16.6 15.3 13.7 83 1.6 N 13 20 7 11 1000.7 - 0.0
21/01:30am 16.6 15.6 13.3 81 1.9 N 11 13 6 7 1000.8 - 0.0
21/01:00am 16.4 15.7 13.3 82 1.7 NNW 9 17 5 9 1001.1 - 0.0
21/12:30am 16.6 15.8 12.8 78 2.1 NW 9 17 5 9 1001.2 - 0.0
21/12:00am 16.8 15.8 12.3 75 2.5 N 9 13 5 7 1001.7 1001.7 0.0
 
Date/Time
EDT
Temp
°C
App
Temp
°C
Dew
Point
Rel
Hum
%
Delta-T
°C
Wind Press
QNH
hPa
Press
MSL
hPa
Rain
since 9 am
mm
Dir
 
Spd
km/h
Gust
km/h
Spd
kts
Gust
kts
20/11:30pm 16.9 15.6 12.4 75 2.5 W 11 28 6 15 1002.0 - 0.0
20/11:00pm 16.4 14.4 12.8 79 2.0 W 15 22 8 12 1001.9 - 0.0
20/10:30pm 16.4 14.8 12.8 79 2.0 WNW 13 24 7 13 1002.6 - 0.0
20/10:00pm 16.5 14.5 12.7 78 2.1 W 15 37 8 20 1002.5 - 0.0
20/09:30pm 16.1 15.3 12.8 81 1.8 W 9 22 5 12 1002.7 - 0.0
20/09:00pm 15.7 13.4 13.0 84 1.5 NW 17 30 9 16 1002.1 1002.1 0.0

Other Formats:

Comma delimited format used in spreadsheet applications
http://www.bom.gov.au/fwo/IDT60801/IDT60801.95981.axf

JavaScript Object Notation format (JSON) in row-major order
http://www.bom.gov.au/fwo/IDT60801/IDT60801.95981.json